Castlemaine, Victoria

1:24 PM AEDT on February 11, 2016 (GMT +1100)
Campbells Creek | | Change Station
CLOSE
Current Station
Personal Weather Station
Location: Campbells Creek, VIC
Elevation: 991 ft
Nearby Weather Stations

Elev 991 ft 37.09 °S, 144.21 °E | Updated 8 seconds ago

Partly Cloudy
Partly Cloudy
83.9 °F
Feels Like 82 °F
N
4.0
Wind Variable Wind from SSW
Gusts 4.0 mph

Today
High -- | Low -- °F
--% Chance of Precip.
Yesterday
High -- | Low -- °F
Precip. -- in
Pressure 29.98 in
Visibility 6.2 miles
Clouds Few 3600 ft
Heat Index 82 °F
Dew Point 49 °F
Humidity 30%
Rainfall 0.00 in
Snow Depth Not available.
6:48 AM 8:25 PM
Waxing Crescent, 8% visible
METAR YMML 110200Z 18009KT 9999 FEW036 23/12 Q1015 NOSIG
Pressure 29.98 in
Visibility 6.2 miles
Clouds Few 3600 ft
Heat Index 82 °F
Dew Point 49 °F
Humidity 30%
Rainfall 0.00 in
Snow Depth Not available.
6:48 AM 8:25 PM
Waxing Crescent, 8% visible
METAR YMML 110200Z 18009KT 9999 FEW036 23/12 Q1015 NOSIG

10-Day Weather Forecast

Almanac

Astronomy

Feb. 11, 2016 Rise Set
Actual Time
Civil Twilight
Nautical Twilight
Astronomical Twilight
Moon
Length of Visible Light
Length of Day
Tomorrow will be .
, % of the Moon is Illuminated

Today's Extremes

Country Highs Country Lows

Community

WunderPhotos

Upload Photos

1,891,984 photos uploaded!

WunderBlog® & News

Nearby

Air Quality

  Air Quality AQ Index Pollutant
Not available.

Snow Depth

Station Depth Elevation

Earthquake Activity

City Distance Mag. Time & Date
Minimum magnitude displayed is 2.5.

Coastal Water Temperatures

Place Temperature

Stations

Nearby Weather Stations

Station Location Temp. Windchill Dew Point Humidity Wind Precip. Elev Updated Type